createdAt,value
2022-09-21T00:01:23.995Z,90.10
2022-09-21T00:03:59.349Z,90.20
2022-09-21T00:06:28.160Z,90.50
2022-09-21T00:08:56.884Z,90.10
2022-09-21T00:11:29.293Z,90.00
2022-09-21T00:13:59.757Z,90.10
2022-09-21T00:16:27.261Z,90.10
2022-09-21T00:18:54.287Z,90.20
2022-09-21T00:21:21.946Z,90.20
2022-09-21T00:23:49.301Z,90.50
2022-09-21T00:26:21.872Z,90.40
2022-09-21T00:28:57.484Z,90.40
2022-09-21T00:31:25.483Z,90.40
2022-09-21T00:33:53.092Z,90.20
2022-09-21T00:36:23.025Z,90.40
2022-09-21T00:38:52.164Z,90.40
2022-09-21T00:41:20.074Z,90.30
2022-09-21T00:44:07.066Z,90.40
2022-09-21T00:46:35.902Z,90.10
2022-09-21T00:49:03.206Z,90.20
2022-09-21T00:51:30.283Z,90.40
2022-09-21T00:54:05.351Z,90.50
2022-09-21T00:56:32.274Z,90.40
2022-09-21T00:58:59.228Z,90.50
2022-09-21T01:01:26.299Z,90.40
2022-09-21T01:03:57.390Z,90.50
2022-09-21T01:06:26.088Z,90.60
2022-09-21T01:08:56.172Z,90.40
2022-09-21T01:11:26.044Z,90.40
2022-09-21T01:14:20.625Z,90.50
2022-09-21T01:17:02.618Z,90.60
2022-09-21T01:20:13.338Z,90.70
2022-09-21T01:22:58.887Z,90.40
2022-09-21T01:25:56.675Z,90.30
2022-09-21T01:28:34.763Z,90.50
2022-09-21T01:31:06.064Z,90.40
2022-09-21T01:33:39.253Z,90.50
2022-09-21T01:36:20.702Z,90.70
2022-09-21T01:38:50.470Z,90.60
2022-09-21T01:41:23.122Z,90.70
2022-09-21T01:43:55.625Z,90.70
2022-09-21T01:46:25.786Z,90.50
2022-09-21T01:48:56.780Z,90.70
2022-09-21T01:51:28.202Z,90.50
2022-09-21T01:53:59.930Z,90.60
2022-09-21T01:56:40.088Z,90.50
2022-09-21T01:59:14.215Z,90.40
2022-09-21T02:02:07.038Z,90.30
2022-09-21T02:04:38.930Z,90.40
2022-09-21T02:07:07.418Z,90.50
2022-09-21T02:09:38.669Z,90.50
2022-09-21T02:12:05.712Z,90.40
2022-09-21T02:14:34.100Z,90.60
2022-09-21T02:17:09.605Z,90.40
2022-09-21T02:19:54.305Z,90.30
2022-09-21T02:22:32.061Z,90.40
2022-09-21T02:25:07.648Z,90.30
2022-09-21T02:27:39.876Z,90.20
2022-09-21T02:30:15.066Z,90.10
2022-09-21T02:32:59.103Z,90.10
2022-09-21T02:35:37.080Z,90.30
2022-09-21T02:38:09.562Z,90.30
2022-09-21T02:40:43.648Z,90.20
2022-09-21T02:43:17.370Z,90.20
2022-09-21T02:45:54.391Z,90.20
2022-09-21T02:48:29.043Z,90.20
2022-09-21T02:51:02.488Z,90.10
2022-09-21T02:53:33.091Z,90.10
2022-09-21T02:56:06.991Z,90.20
2022-09-21T02:58:50.106Z,90.30
2022-09-21T03:01:18.714Z,90.10
2022-09-21T03:03:45.468Z,90.00
2022-09-21T03:06:12.194Z,89.80
2022-09-21T03:08:39.062Z,90.10
2022-09-21T03:11:06.075Z,90.20
2022-09-21T03:13:32.995Z,89.90
2022-09-21T03:16:07.378Z,90.20
2022-09-21T03:18:35.058Z,90.20
2022-09-21T03:21:03.257Z,90.00
2022-09-21T03:23:30.220Z,89.90
2022-09-21T03:25:56.983Z,89.90
2022-09-21T03:28:24.072Z,90.10
2022-09-21T03:30:53.114Z,90.10
2022-09-21T03:33:20.529Z,90.10
2022-09-21T03:35:50.311Z,89.90
2022-09-21T03:38:17.763Z,90.00
2022-09-21T03:40:49.024Z,90.30
2022-09-21T03:43:16.782Z,90.10
2022-09-21T03:45:43.763Z,90.10
2022-09-21T03:48:12.090Z,90.00
2022-09-21T03:50:38.718Z,90.00
2022-09-21T03:53:05.947Z,90.00
2022-09-21T03:55:33.273Z,90.00
2022-09-21T03:58:00.555Z,90.10
2022-09-21T04:00:27.953Z,90.00
2022-09-21T04:02:55.148Z,89.70
2022-09-21T04:05:22.275Z,90.20
2022-09-21T04:07:51.274Z,90.10
2022-09-21T04:10:21.345Z,89.90
2022-09-21T04:12:48.295Z,90.00
2022-09-21T04:15:19.523Z,89.90
2022-09-21T04:17:47.328Z,90.00
2022-09-21T04:20:14.088Z,89.70
2022-09-21T04:22:43.520Z,90.10
2022-09-21T04:25:12.137Z,90.20
2022-09-21T04:27:39.136Z,89.80
2022-09-21T04:30:06.689Z,89.80
2022-09-21T04:32:33.353Z,89.50
2022-09-21T04:35:00.078Z,89.60
2022-09-21T04:37:26.992Z,89.70
2022-09-21T04:39:53.727Z,90.00
2022-09-21T04:42:20.534Z,89.90
2022-09-21T04:44:47.223Z,89.80
2022-09-21T04:47:14.544Z,90.00
2022-09-21T04:49:41.258Z,89.80
2022-09-21T04:52:08.122Z,89.60
2022-09-21T04:54:34.874Z,90.10
2022-09-21T04:57:01.648Z,90.00
2022-09-21T04:59:28.398Z,89.10
2022-09-21T05:01:55.087Z,90.00
2022-09-21T05:04:21.830Z,89.80
2022-09-21T05:06:48.545Z,89.60
2022-09-21T05:09:34.913Z,90.00
2022-09-21T05:12:03.013Z,89.70
2022-09-21T05:14:29.714Z,89.70
2022-09-21T05:16:56.431Z,90.00
2022-09-21T05:19:23.593Z,89.80
2022-09-21T05:21:50.780Z,90.00
2022-09-21T05:24:17.537Z,90.10
2022-09-21T05:26:44.285Z,90.20
2022-09-21T05:29:11.306Z,89.90
2022-09-21T05:31:40.877Z,90.00
2022-09-21T05:34:38.979Z,90.00
2022-09-21T05:37:21.336Z,89.90
2022-09-21T05:39:48.307Z,89.80
2022-09-21T05:42:15.247Z,90.00
2022-09-21T05:44:42.805Z,89.90
2022-09-21T05:47:26.439Z,89.90
2022-09-21T05:50:11.745Z,90.10
2022-09-21T05:52:56.137Z,89.90
2022-09-21T05:55:59.006Z,90.00
2022-09-21T05:58:57.301Z,90.00
2022-09-21T06:01:42.072Z,90.10
2022-09-21T06:04:14.959Z,90.30
2022-09-21T06:06:41.744Z,90.00
2022-09-21T06:09:08.934Z,90.10
2022-09-21T06:11:36.414Z,90.10
2022-09-21T06:14:03.807Z,90.10
2022-09-21T06:16:43.504Z,90.10
2022-09-21T06:19:13.990Z,90.00
2022-09-21T06:21:40.771Z,90.10
2022-09-21T06:24:08.100Z,90.20
2022-09-21T06:26:35.513Z,90.10
2022-09-21T06:29:02.228Z,90.30
2022-09-21T06:31:29.565Z,90.30
2022-09-21T06:33:56.403Z,90.20
2022-09-21T06:36:23.642Z,91.30
2022-09-21T06:38:50.360Z,91.70
2022-09-21T06:41:20.988Z,79.90
2022-09-21T06:43:48.261Z,79.70
2022-09-21T06:46:15.157Z,79.90
2022-09-21T06:48:42.086Z,80.10
2022-09-21T06:51:10.828Z,80.80
2022-09-21T06:53:37.516Z,82.00
2022-09-21T06:56:06.676Z,82.90
2022-09-21T06:58:34.687Z,82.70
2022-09-21T07:01:12.752Z,83.60
2022-09-21T07:03:40.158Z,84.00
2022-09-21T07:06:08.841Z,84.80
2022-09-21T07:11:27.533Z,85.00
2022-09-21T07:13:55.120Z,85.30
2022-09-21T07:16:21.969Z,86.10
2022-09-21T07:18:48.992Z,86.10
2022-09-21T07:21:16.730Z,85.90
2022-09-21T07:23:44.046Z,86.20
2022-09-21T07:26:12.892Z,86.90
2022-09-21T07:28:40.228Z,87.80
2022-09-21T07:31:13.998Z,87.90
2022-09-21T07:33:46.486Z,88.00
2022-09-21T07:36:13.335Z,88.40
2022-09-21T07:38:44.178Z,89.10
2022-09-21T07:41:13.058Z,89.10
2022-09-21T07:43:40.559Z,90.10
2022-09-21T07:46:15.081Z,90.00
2022-09-21T07:48:42.530Z,90.20
2022-09-21T07:51:11.701Z,90.30
2022-09-21T07:53:40.997Z,90.40
2022-09-21T07:56:10.237Z,90.70
2022-09-21T07:58:57.038Z,90.50
2022-09-21T08:01:25.332Z,90.50
2022-09-21T08:03:55.342Z,90.70
2022-09-21T08:06:23.099Z,90.10
2022-09-21T08:08:55.027Z,89.40
2022-09-21T08:11:23.737Z,90.60
2022-09-21T08:13:59.147Z,90.90
2022-09-21T08:16:27.074Z,91.20
2022-09-21T08:18:53.851Z,91.10
2022-09-21T08:21:21.008Z,91.50
2022-09-21T08:23:49.202Z,91.80
2022-09-21T08:26:19.177Z,91.10
2022-09-21T08:28:51.693Z,90.90
2022-09-21T08:31:20.984Z,90.80
2022-09-21T08:33:49.826Z,90.80
2022-09-21T08:36:17.515Z,91.30
2022-09-21T08:38:46.887Z,91.80
2022-09-21T08:41:41.384Z,91.60
2022-09-21T08:44:20.060Z,91.20
2022-09-21T08:46:50.978Z,91.10
2022-09-21T08:49:23.120Z,90.80
2022-09-21T08:52:02.864Z,90.40
2022-09-21T08:54:41.121Z,89.80
2022-09-21T08:57:15.574Z,89.50
2022-09-21T08:59:46.727Z,90.30
2022-09-21T09:02:13.744Z,90.10
2022-09-21T09:04:52.619Z,90.20
2022-09-21T09:07:49.059Z,90.30
2022-09-21T09:10:23.806Z,83.00
2022-09-21T09:13:08.253Z,87.70
2022-09-21T09:16:09.344Z,80.80
2022-09-21T09:18:44.878Z,86.80
2022-09-21T09:21:11.721Z,82.00
2022-09-21T09:23:44.123Z,83.70
2022-09-21T09:26:30.292Z,86.10
2022-09-21T09:29:29.028Z,86.90
2022-09-21T09:31:58.589Z,87.80
2022-09-21T09:34:32.322Z,88.00
2022-09-21T09:37:13.997Z,85.10
2022-09-21T09:39:43.086Z,85.20
2022-09-21T09:42:34.484Z,86.90
2022-09-21T09:45:11.804Z,86.90
2022-09-21T09:48:10.397Z,86.90
2022-09-21T09:50:42.565Z,87.20
2022-09-21T09:53:22.567Z,84.30
2022-09-21T09:55:52.191Z,79.90
2022-09-21T09:58:24.264Z,83.80
2022-09-21T10:00:55.473Z,86.00
2022-09-21T10:03:24.594Z,83.80
2022-09-21T10:05:51.989Z,84.10
2022-09-21T10:08:36.867Z,85.50
2022-09-21T10:11:04.327Z,82.80
2022-09-21T10:13:42.751Z,84.40
2022-09-21T10:16:20.525Z,82.00
2022-09-21T10:19:03.253Z,81.40
2022-09-21T10:21:37.029Z,82.50
2022-09-21T10:24:15.592Z,73.60
2022-09-21T10:26:54.435Z,77.80
2022-09-21T10:29:25.194Z,82.20
2022-09-21T10:32:05.351Z,83.90
2022-09-21T10:34:34.579Z,81.90
2022-09-21T10:37:22.633Z,79.60
2022-09-21T10:39:49.370Z,80.60
2022-09-21T10:42:18.758Z,81.40
2022-09-21T10:44:47.900Z,80.40
2022-09-21T10:47:35.457Z,76.90
2022-09-21T10:50:05.616Z,72.70
2022-09-21T10:52:42.840Z,78.60
2022-09-21T10:55:19.041Z,78.60
2022-09-21T10:57:46.775Z,80.20
2022-09-21T11:00:40.683Z,81.40
2022-09-21T11:03:28.505Z,79.70
2022-09-21T11:06:02.519Z,78.90
2022-09-21T11:08:45.122Z,80.60
2022-09-21T11:11:30.646Z,77.80
2022-09-21T11:14:37.349Z,77.80
2022-09-21T11:17:08.610Z,77.90
2022-09-21T11:20:03.938Z,77.10
2022-09-21T11:22:57.435Z,71.60
2022-09-21T11:25:31.261Z,75.90
2022-09-21T11:28:22.240Z,73.10
2022-09-21T11:31:14.893Z,72.70
2022-09-21T11:34:02.073Z,72.00
2022-09-21T11:36:55.416Z,72.60
2022-09-21T11:40:03.543Z,72.40
2022-09-21T11:42:51.036Z,70.70
2022-09-21T11:45:50.638Z,67.70
2022-09-21T11:48:30.788Z,66.30
2022-09-21T11:51:03.787Z,72.30
2022-09-21T11:53:50.144Z,74.00
2022-09-21T11:56:55.140Z,74.40
2022-09-21T11:59:36.447Z,74.20
2022-09-21T12:02:31.511Z,74.80
2022-09-21T12:05:13.972Z,72.80
2022-09-21T12:08:09.201Z,73.90
2022-09-21T12:11:03.989Z,63.00
2022-09-21T12:13:54.833Z,60.70
2022-09-21T12:16:46.432Z,64.60
2022-09-21T12:19:39.790Z,64.60
2022-09-21T12:22:17.651Z,64.60
2022-09-21T12:24:49.227Z,64.00
2022-09-21T12:27:44.561Z,64.50
2022-09-21T12:30:15.147Z,65.00
2022-09-21T12:33:06.524Z,68.30
2022-09-21T12:35:43.882Z,67.30
2022-09-21T12:41:21.449Z,71.30
2022-09-21T12:44:00.547Z,67.90
2022-09-21T12:46:38.007Z,70.40
2022-09-21T12:49:31.550Z,67.90
2022-09-21T12:52:03.610Z,66.70
2022-09-21T12:54:50.476Z,63.50
2022-09-21T12:58:10.998Z,66.30
2022-09-21T13:00:42.602Z,63.20
2022-09-21T13:03:19.366Z,65.50
2022-09-21T13:06:34.422Z,67.10
2022-09-21T13:09:06.185Z,71.70
2022-09-21T13:11:35.567Z,71.70
2022-09-21T13:14:04.752Z,72.10
2022-09-21T13:16:35.244Z,71.40
2022-09-21T13:19:19.206Z,64.80
2022-09-21T13:21:46.128Z,71.40
2022-09-21T13:24:31.038Z,70.90
2022-09-21T13:27:05.017Z,71.50
2022-09-21T13:29:34.836Z,70.40
2022-09-21T13:32:22.829Z,66.40
2022-09-21T13:34:51.008Z,61.40
2022-09-21T13:37:21.040Z,67.50
2022-09-21T13:40:03.384Z,70.50
2022-09-21T13:42:33.679Z,70.90
2022-09-21T13:45:15.327Z,72.00
2022-09-21T13:47:45.687Z,71.80
2022-09-21T13:50:21.522Z,70.60
2022-09-21T13:52:52.289Z,65.80
2022-09-21T13:55:22.107Z,64.10
2022-09-21T13:57:54.338Z,58.30
2022-09-21T14:00:50.539Z,63.40
2022-09-21T14:03:55.829Z,60.60
2022-09-21T14:06:42.931Z,62.00
2022-09-21T14:09:30.084Z,63.50
2022-09-21T14:12:03.802Z,63.40
2022-09-21T14:14:43.265Z,58.00
2022-09-21T14:17:42.826Z,55.30
2022-09-21T14:20:32.014Z,61.20
2022-09-21T14:23:16.378Z,62.20
2022-09-21T14:25:54.478Z,68.00
2022-09-21T14:28:41.346Z,67.60
2022-09-21T14:31:20.777Z,70.40
2022-09-21T14:33:53.518Z,69.80
2022-09-21T14:36:25.609Z,71.00
2022-09-21T14:39:01.718Z,70.90
2022-09-21T14:41:37.597Z,69.90
2022-09-21T14:44:05.289Z,70.20
2022-09-21T14:46:59.597Z,68.90
2022-09-21T14:50:14.335Z,62.90
2022-09-21T14:53:09.370Z,71.00
2022-09-21T14:56:00.703Z,64.50
2022-09-21T14:59:28.849Z,59.60
2022-09-21T15:01:59.353Z,55.90
2022-09-21T15:04:46.171Z,63.70
2022-09-21T15:07:34.251Z,63.90
2022-09-21T15:10:30.411Z,59.50
2022-09-21T15:13:19.177Z,64.70
2022-09-21T15:15:57.835Z,58.60
2022-09-21T15:18:25.794Z,64.10
2022-09-21T15:21:03.446Z,64.00
2022-09-21T15:23:34.830Z,65.60
2022-09-21T15:26:04.241Z,63.20
2022-09-21T15:29:07.820Z,62.70
2022-09-21T15:31:38.684Z,63.60
2022-09-21T15:34:06.764Z,63.50
2022-09-21T15:36:44.232Z,64.30
2022-09-21T15:39:29.073Z,64.80
2022-09-21T15:42:20.171Z,66.20
2022-09-21T15:44:49.022Z,66.70
2022-09-21T15:47:22.441Z,67.20
2022-09-21T15:49:50.873Z,67.90
2022-09-21T15:52:43.123Z,69.10
2022-09-21T15:55:21.532Z,70.50
2022-09-21T15:58:21.381Z,71.80
2022-09-21T16:00:55.948Z,73.20
2022-09-21T16:03:25.960Z,73.40
2022-09-21T16:05:55.426Z,74.10
2022-09-21T16:08:35.866Z,75.40
2022-09-21T16:11:15.805Z,76.10
2022-09-21T16:14:02.887Z,76.90
2022-09-21T16:16:29.773Z,77.40
2022-09-21T16:19:00.046Z,78.40
2022-09-21T16:21:35.161Z,79.20
2022-09-21T16:24:19.520Z,79.00
2022-09-21T16:27:00.882Z,80.10
2022-09-21T16:29:42.984Z,81.10
2022-09-21T16:32:35.926Z,80.50
2022-09-21T16:35:21.989Z,81.10
2022-09-21T16:37:51.795Z,81.40
2022-09-21T16:40:19.355Z,82.70
2022-09-21T16:42:46.587Z,83.00
2022-09-21T16:45:23.988Z,82.50
2022-09-21T16:47:53.265Z,82.60
2022-09-21T16:50:20.305Z,83.00
2022-09-21T16:52:52.392Z,83.00
2022-09-21T16:55:20.027Z,83.20
2022-09-21T16:57:48.202Z,84.20
2022-09-21T17:00:20.771Z,84.20
2022-09-21T17:02:48.372Z,84.60
2022-09-21T17:05:18.018Z,84.10
2022-09-21T17:07:51.225Z,84.80
2022-09-21T17:10:19.461Z,84.60
2022-09-21T17:12:46.548Z,85.00
2022-09-21T17:15:13.585Z,85.40
2022-09-21T17:17:42.556Z,85.50
2022-09-21T17:20:20.515Z,85.70
2022-09-21T17:22:47.246Z,85.70
2022-09-21T17:25:14.065Z,85.90
2022-09-21T17:27:42.340Z,86.00
2022-09-21T17:30:13.234Z,86.20
2022-09-21T17:32:42.897Z,86.10
2022-09-21T17:35:32.849Z,86.70
2022-09-21T17:38:00.803Z,86.30
2022-09-21T17:40:29.787Z,86.20
2022-09-21T17:43:16.011Z,86.80
2022-09-21T17:45:50.417Z,86.40
2022-09-21T17:48:22.236Z,86.50
2022-09-21T17:50:49.954Z,86.60
2022-09-21T17:53:37.451Z,86.50
2022-09-21T17:56:25.748Z,86.60
2022-09-21T17:59:05.291Z,86.60
2022-09-21T18:01:36.690Z,86.80
2022-09-21T18:04:05.061Z,86.90
2022-09-21T18:06:34.047Z,87.00
2022-09-21T18:09:01.696Z,87.20
2022-09-21T18:11:46.164Z,87.30
2022-09-21T18:14:27.848Z,87.90
2022-09-21T18:17:20.705Z,87.90
2022-09-21T18:20:29.781Z,87.70
2022-09-21T18:23:32.933Z,87.90
2022-09-21T18:26:00.500Z,87.70
2022-09-21T18:28:47.690Z,88.10
2022-09-21T18:31:46.758Z,88.00
2022-09-21T18:34:46.955Z,87.80
2022-09-21T18:37:32.621Z,87.70
2022-09-21T18:40:11.864Z,87.90
2022-09-21T18:42:53.072Z,87.80
2022-09-21T18:45:29.803Z,87.90
2022-09-21T18:48:15.897Z,88.10
2022-09-21T18:51:12.336Z,87.90
2022-09-21T18:53:46.976Z,88.10
2022-09-21T18:56:14.609Z,88.30
2022-09-21T18:58:43.056Z,88.50
2022-09-21T19:01:14.669Z,88.50
2022-09-21T19:04:02.343Z,88.60
2022-09-21T19:06:42.624Z,88.30
2022-09-21T19:09:37.497Z,88.40
2022-09-21T19:12:28.502Z,88.50
2022-09-21T19:15:42.309Z,88.60
2022-09-21T19:18:45.532Z,88.50
2022-09-21T19:21:48.723Z,88.60
2022-09-21T19:24:30.506Z,88.60
2022-09-21T19:27:26.406Z,88.60
2022-09-21T19:30:13.127Z,88.60
2022-09-21T19:32:51.772Z,88.70
2022-09-21T19:35:22.090Z,88.80
2022-09-21T19:37:50.310Z,88.90
2022-09-21T19:40:17.990Z,88.90
2022-09-21T19:43:12.955Z,88.90
2022-09-21T19:46:32.388Z,88.90
2022-09-21T19:49:21.186Z,89.00
2022-09-21T19:51:50.238Z,88.80
2022-09-21T19:54:43.378Z,88.90
2022-09-21T19:57:35.019Z,89.10
2022-09-21T20:00:02.598Z,89.10
2022-09-21T20:02:32.619Z,88.90
2022-09-21T20:05:13.475Z,89.40
2022-09-21T20:07:44.388Z,89.10
2022-09-21T20:10:25.062Z,89.00
2022-09-21T20:13:24.023Z,88.90
2022-09-21T20:16:03.816Z,89.10
2022-09-21T20:18:30.554Z,89.10
2022-09-21T20:20:57.706Z,89.20
2022-09-21T20:23:24.742Z,89.10
2022-09-21T20:26:00.692Z,89.40
2022-09-21T20:28:27.771Z,88.90
2022-09-21T20:30:54.758Z,88.80
2022-09-21T20:33:26.910Z,88.90
2022-09-21T20:35:55.735Z,88.90
2022-09-21T20:38:23.181Z,89.40
2022-09-21T20:40:50.192Z,89.30
2022-09-21T20:43:17.003Z,88.90
2022-09-21T20:45:47.717Z,88.90
2022-09-21T20:48:14.728Z,89.30
2022-09-21T20:50:46.381Z,89.30
2022-09-21T20:53:13.674Z,88.90
2022-09-21T20:55:41.681Z,89.10
2022-09-21T20:58:12.903Z,89.00
2022-09-21T21:00:40.179Z,88.90
2022-09-21T21:03:06.935Z,88.90
2022-09-21T21:05:33.683Z,89.10
2022-09-21T21:08:00.450Z,89.00
2022-09-21T21:10:27.389Z,88.90
2022-09-21T21:12:54.151Z,88.80
2022-09-21T21:15:20.892Z,89.10
2022-09-21T21:17:48.725Z,88.90
2022-09-21T21:20:16.703Z,89.00
2022-09-21T21:22:44.808Z,88.80
2022-09-21T21:25:11.774Z,89.10
2022-09-21T21:27:39.109Z,89.20
2022-09-21T21:30:07.200Z,89.20
2022-09-21T21:32:34.250Z,89.20
2022-09-21T21:35:01.671Z,89.00
2022-09-21T21:37:29.171Z,88.70
2022-09-21T21:39:56.962Z,88.60
2022-09-21T21:42:29.480Z,88.80
2022-09-21T21:44:56.510Z,89.00
2022-09-21T21:47:40.150Z,88.90
2022-09-21T21:50:10.646Z,88.90
2022-09-21T21:52:37.751Z,88.70
2022-09-21T21:55:05.616Z,89.20
2022-09-21T21:57:33.280Z,88.70
2022-09-21T22:00:00.079Z,88.90
2022-09-21T22:02:27.233Z,88.50
2022-09-21T22:04:57.081Z,88.80
2022-09-21T22:07:23.794Z,88.90
2022-09-21T22:09:50.500Z,88.40
2022-09-21T22:12:17.598Z,88.60
2022-09-21T22:14:46.349Z,88.40
2022-09-21T22:17:13.451Z,88.80
2022-09-21T22:19:40.341Z,88.60
2022-09-21T22:22:07.067Z,88.60
2022-09-21T22:24:33.765Z,88.50
2022-09-21T22:27:00.619Z,88.90
2022-09-21T22:29:27.298Z,88.40
2022-09-21T22:31:55.269Z,88.70
2022-09-21T22:34:22.098Z,88.50
2022-09-21T22:36:50.222Z,88.30
2022-09-21T22:39:16.958Z,88.30
2022-09-21T22:41:44.362Z,88.40
2022-09-21T22:44:11.682Z,88.30
2022-09-21T22:46:38.979Z,88.70
2022-09-21T22:49:06.051Z,88.20
2022-09-21T22:51:33.561Z,88.90
2022-09-21T22:54:01.499Z,88.50
2022-09-21T22:56:30.878Z,88.30
2022-09-21T22:58:59.352Z,88.40
2022-09-21T23:01:44.711Z,88.60
2022-09-21T23:04:13.552Z,88.30
2022-09-21T23:06:43.286Z,88.20
2022-09-21T23:09:18.571Z,88.50
2022-09-21T23:11:48.277Z,88.30
2022-09-21T23:14:16.581Z,88.30
2022-09-21T23:16:43.446Z,88.30
2022-09-21T23:19:15.534Z,88.40
2022-09-21T23:21:45.214Z,88.00
2022-09-21T23:24:12.962Z,88.10
2022-09-21T23:26:39.801Z,88.40
2022-09-21T23:29:12.480Z,88.00
2022-09-21T23:31:44.443Z,88.20
2022-09-21T23:34:12.732Z,88.10
2022-09-21T23:36:40.699Z,88.00
2022-09-21T23:39:10.543Z,88.00
2022-09-21T23:41:37.543Z,88.50
2022-09-21T23:44:04.827Z,88.20
2022-09-21T23:46:34.722Z,88.60
2022-09-21T23:49:02.215Z,88.20
2022-09-21T23:51:32.320Z,87.90
2022-09-21T23:53:59.728Z,88.00
2022-09-21T23:56:27.236Z,87.80
2022-09-21T23:58:54.612Z,88.20
